createdAt,value
2023-05-04T00:02:11.738Z,100.00
2023-05-04T00:04:38.670Z,100.00
2023-05-04T00:07:05.721Z,100.00
2023-05-04T00:09:32.630Z,100.00
2023-05-04T00:11:59.502Z,100.00
2023-05-04T00:14:26.744Z,100.00
2023-05-04T00:16:53.529Z,100.00
2023-05-04T00:19:20.488Z,100.00
2023-05-04T00:21:47.296Z,100.00
2023-05-04T00:24:14.228Z,100.00
2023-05-04T00:26:41.373Z,100.00
2023-05-04T00:29:08.219Z,100.00
2023-05-04T00:31:35.098Z,100.00
2023-05-04T00:34:02.104Z,100.00
2023-05-04T00:36:29.011Z,100.00
2023-05-04T00:38:55.870Z,100.00
2023-05-04T00:41:22.643Z,100.00
2023-05-04T00:43:50.041Z,100.00
2023-05-04T00:46:16.799Z,100.00
2023-05-04T00:48:45.841Z,100.00
2023-05-04T00:51:13.175Z,100.00
2023-05-04T00:53:40.061Z,100.00
2023-05-04T00:56:07.103Z,100.00
2023-05-04T00:58:34.116Z,100.00
2023-05-04T01:01:01.798Z,100.00
2023-05-04T01:03:29.025Z,100.00
2023-05-04T01:06:21.855Z,100.00
2023-05-04T01:09:03.404Z,100.00
2023-05-04T01:11:40.750Z,100.00
2023-05-04T01:14:07.903Z,100.00
2023-05-04T01:16:34.938Z,100.00
2023-05-04T01:19:03.428Z,100.00
2023-05-04T01:21:30.592Z,100.00
2023-05-04T01:23:58.109Z,100.00
2023-05-04T01:26:27.796Z,100.00
2023-05-04T01:29:00.342Z,100.00
2023-05-04T01:31:28.076Z,100.00
2023-05-04T01:33:55.695Z,100.00
2023-05-04T01:36:22.679Z,100.00
2023-05-04T01:38:53.265Z,100.00
2023-05-04T01:41:20.911Z,100.00
2023-05-04T01:43:48.715Z,100.00
2023-05-04T01:46:15.460Z,100.00
2023-05-04T01:48:42.332Z,100.00
2023-05-04T01:51:09.194Z,100.00
2023-05-04T01:53:36.215Z,100.00
2023-05-04T01:56:03.004Z,100.00
2023-05-04T01:58:30.001Z,100.00
2023-05-04T02:00:58.679Z,100.00
2023-05-04T02:03:25.896Z,100.00
2023-05-04T02:05:52.845Z,100.00
2023-05-04T02:08:19.806Z,100.00
2023-05-04T02:10:47.405Z,100.00
2023-05-04T02:13:15.464Z,100.00
2023-05-04T02:15:42.645Z,100.00
2023-05-04T02:18:10.633Z,100.00
2023-05-04T02:20:38.030Z,100.00
2023-05-04T02:23:05.389Z,100.00
2023-05-04T02:25:32.225Z,100.00
2023-05-04T02:27:58.956Z,100.00
2023-05-04T02:30:26.174Z,100.00
2023-05-04T02:32:53.245Z,100.00
2023-05-04T02:35:22.254Z,100.00
2023-05-04T02:37:49.079Z,100.00
2023-05-04T02:40:16.248Z,100.00
2023-05-04T02:42:43.085Z,100.00
2023-05-04T02:45:10.318Z,100.00
2023-05-04T02:47:37.401Z,100.00
2023-05-04T02:50:05.229Z,100.00
2023-05-04T02:52:33.320Z,100.00
2023-05-04T02:55:00.982Z,100.00
2023-05-04T02:57:27.820Z,100.00
2023-05-04T02:59:54.689Z,100.00
2023-05-04T03:02:21.456Z,100.00
2023-05-04T03:04:48.457Z,100.00
2023-05-04T03:07:15.303Z,100.00
2023-05-04T03:09:42.138Z,100.00
2023-05-04T03:12:08.972Z,100.00
2023-05-04T03:14:36.437Z,100.00
2023-05-04T03:17:03.323Z,100.00
2023-05-04T03:19:30.592Z,100.00
2023-05-04T03:21:57.431Z,100.00
2023-05-04T03:24:24.826Z,100.00
2023-05-04T03:26:51.979Z,100.00
2023-05-04T03:29:18.817Z,100.00
2023-05-04T03:31:45.835Z,100.00
2023-05-04T03:34:14.767Z,100.00
2023-05-04T03:36:41.901Z,100.00
2023-05-04T03:39:08.860Z,100.00
2023-05-04T03:41:37.125Z,100.00
2023-05-04T03:44:04.114Z,100.00
2023-05-04T03:46:31.973Z,100.00
2023-05-04T03:48:58.776Z,100.00
2023-05-04T03:51:25.709Z,100.00
2023-05-04T03:53:52.561Z,100.00
2023-05-04T03:56:19.442Z,100.00
2023-05-04T03:58:46.274Z,100.00
2023-05-04T04:01:13.911Z,100.00
2023-05-04T04:03:41.130Z,100.00
2023-05-04T04:06:09.233Z,100.00
2023-05-04T04:08:36.379Z,100.00
2023-05-04T04:11:03.439Z,100.00
2023-05-04T04:13:30.774Z,100.00
2023-05-04T04:15:57.653Z,100.00
2023-05-04T04:18:24.748Z,100.00
2023-05-04T04:20:51.477Z,100.00
2023-05-04T04:23:18.714Z,100.00
2023-05-04T04:25:45.886Z,100.00
2023-05-04T04:28:16.090Z,100.00
2023-05-04T04:30:42.869Z,100.00
2023-05-04T04:33:09.653Z,100.00
2023-05-04T04:35:36.763Z,100.00
2023-05-04T04:38:04.037Z,100.00
2023-05-04T04:40:31.404Z,100.00
2023-05-04T04:42:58.316Z,100.00
2023-05-04T04:45:25.192Z,100.00
2023-05-04T04:47:52.270Z,100.00
2023-05-04T04:50:19.245Z,100.00
2023-05-04T04:52:46.043Z,100.00
2023-05-04T04:55:14.983Z,100.00
2023-05-04T04:57:41.757Z,100.00
2023-05-04T05:00:09.702Z,100.00
2023-05-04T05:02:37.373Z,100.00
2023-05-04T05:05:04.569Z,100.00
2023-05-04T05:07:32.279Z,100.00
2023-05-04T05:09:59.320Z,100.00
2023-05-04T05:12:26.254Z,100.00
2023-05-04T05:14:53.183Z,100.00
2023-05-04T05:17:20.145Z,100.00
2023-05-04T05:19:47.578Z,100.00
2023-05-04T05:22:14.543Z,100.00
2023-05-04T05:24:41.844Z,100.00
2023-05-04T05:27:08.840Z,100.00
2023-05-04T05:29:36.604Z,100.00
2023-05-04T05:32:03.890Z,100.00
2023-05-04T05:34:30.767Z,100.00
2023-05-04T05:36:57.805Z,100.00
2023-05-04T05:39:24.641Z,100.00
2023-05-04T05:41:57.061Z,100.00
2023-05-04T05:44:24.021Z,100.00
2023-05-04T05:46:50.768Z,100.00
2023-05-04T05:49:17.690Z,100.00
2023-05-04T05:51:44.636Z,100.00
2023-05-04T05:54:11.492Z,98.93
2023-05-04T05:56:38.221Z,92.84
2023-05-04T05:59:05.749Z,88.33
2023-05-04T06:01:33.324Z,85.19
2023-05-04T06:04:00.640Z,86.05
2023-05-04T06:06:27.809Z,78.60
2023-05-04T06:08:54.607Z,77.49
2023-05-04T06:11:22.338Z,77.56
2023-05-04T06:13:49.336Z,74.78
2023-05-04T06:16:16.339Z,77.22
2023-05-04T06:18:43.230Z,81.72
2023-05-04T06:21:10.220Z,83.40
2023-05-04T06:23:37.035Z,81.46
2023-05-04T06:26:10.112Z,75.16
2023-05-04T06:28:37.154Z,75.10
2023-05-04T06:31:04.041Z,78.37
2023-05-04T06:33:31.554Z,79.02
2023-05-04T06:35:58.412Z,86.61
2023-05-04T06:38:25.383Z,85.91
2023-05-04T06:40:52.429Z,82.06
2023-05-04T06:43:19.790Z,76.26
2023-05-04T06:45:46.753Z,71.89
2023-05-04T06:48:13.777Z,70.75
2023-05-04T06:50:40.542Z,73.80
2023-05-04T06:53:08.997Z,76.21
2023-05-04T06:55:36.654Z,76.29
2023-05-04T06:58:03.672Z,76.20
2023-05-04T07:00:31.561Z,76.40
2023-05-04T07:02:58.401Z,73.77
2023-05-04T07:05:25.661Z,74.97
2023-05-04T07:07:52.909Z,76.12
2023-05-04T07:10:19.796Z,74.94
2023-05-04T07:12:46.957Z,72.33
2023-05-04T07:15:14.076Z,70.57
2023-05-04T07:17:41.456Z,70.79
2023-05-04T07:20:08.735Z,71.12
2023-05-04T07:22:36.015Z,69.02
2023-05-04T07:25:03.165Z,66.13
2023-05-04T07:27:30.803Z,63.92
2023-05-04T07:29:57.986Z,61.84
2023-05-04T07:32:25.119Z,59.23
2023-05-04T07:34:52.136Z,56.34
2023-05-04T07:37:19.020Z,56.10
2023-05-04T07:39:45.755Z,54.33
2023-05-04T07:42:12.787Z,55.09
2023-05-04T07:44:40.717Z,58.08
2023-05-04T07:47:07.612Z,61.54
2023-05-04T07:49:34.545Z,70.58
2023-05-04T07:52:01.490Z,73.27
2023-05-04T07:54:28.543Z,73.92
2023-05-04T07:56:55.600Z,79.02
2023-05-04T07:59:22.536Z,81.05
2023-05-04T08:01:49.508Z,81.02
2023-05-04T08:04:16.325Z,86.02
2023-05-04T08:06:43.295Z,89.86
2023-05-04T08:09:10.423Z,90.70
2023-05-04T08:11:39.141Z,89.61
2023-05-04T08:14:06.087Z,83.89
2023-05-04T08:16:33.188Z,82.28
2023-05-04T08:19:00.814Z,90.01
2023-05-04T08:21:27.750Z,82.97
2023-05-04T08:23:54.685Z,78.05
2023-05-04T08:26:21.518Z,76.53
2023-05-04T08:28:50.476Z,75.48
2023-05-04T08:31:20.869Z,72.04
2023-05-04T08:33:47.902Z,70.59
2023-05-04T08:36:15.005Z,76.38
2023-05-04T08:38:41.843Z,85.47
2023-05-04T08:41:10.525Z,87.14
2023-05-04T08:43:37.744Z,85.49
2023-05-04T08:46:05.840Z,75.95
2023-05-04T08:48:36.446Z,68.28
2023-05-04T08:51:06.107Z,70.97
2023-05-04T08:53:36.047Z,75.22
2023-05-04T08:56:03.850Z,77.19
2023-05-04T08:58:31.159Z,74.14
2023-05-04T09:00:58.650Z,70.50
2023-05-04T09:03:26.060Z,67.11
2023-05-04T09:05:53.596Z,66.00
2023-05-04T09:08:21.006Z,66.66
2023-05-04T09:10:47.910Z,62.93
2023-05-04T09:13:15.618Z,65.56
2023-05-04T09:15:42.462Z,67.56
2023-05-04T09:18:09.443Z,67.98
2023-05-04T09:20:44.562Z,66.33
2023-05-04T09:23:11.710Z,58.92
2023-05-04T09:25:51.729Z,56.71
2023-05-04T09:28:21.015Z,56.23
2023-05-04T09:30:48.451Z,55.62
2023-05-04T09:33:16.002Z,55.10
2023-05-04T09:35:46.179Z,54.98
2023-05-04T09:38:26.128Z,55.26
2023-05-04T09:40:52.996Z,54.41
2023-05-04T09:43:20.063Z,56.76
2023-05-04T09:45:47.418Z,58.85
2023-05-04T09:48:19.519Z,65.53
2023-05-04T09:50:53.983Z,67.90
2023-05-04T09:53:22.759Z,67.15
2023-05-04T09:56:00.701Z,65.22
2023-05-04T09:58:30.111Z,64.24
2023-05-04T10:00:58.512Z,63.86
2023-05-04T10:03:26.025Z,62.32
2023-05-04T10:05:53.708Z,59.08
2023-05-04T10:08:20.710Z,57.42
2023-05-04T10:10:47.564Z,56.21
2023-05-04T10:13:15.085Z,53.88
2023-05-04T10:15:50.975Z,58.07
2023-05-04T10:19:29.501Z,63.41
2023-05-04T10:22:31.456Z,70.36
2023-05-04T10:25:14.212Z,72.07
2023-05-04T10:28:01.809Z,72.86
2023-05-04T10:30:28.856Z,69.99
2023-05-04T10:32:56.825Z,68.60
2023-05-04T10:35:24.056Z,66.85
2023-05-04T10:37:55.204Z,63.17
2023-05-04T10:40:35.539Z,62.37
2023-05-04T10:43:02.508Z,58.10
2023-05-04T10:45:39.526Z,60.47
2023-05-04T10:48:07.996Z,61.45
2023-05-04T10:50:45.229Z,61.23
2023-05-04T10:53:14.009Z,63.61
2023-05-04T10:55:45.557Z,60.14
2023-05-04T10:58:16.006Z,61.15
2023-05-04T11:00:46.003Z,62.43
2023-05-04T11:03:13.441Z,61.41
2023-05-04T11:05:45.022Z,60.29
2023-05-04T11:08:16.331Z,60.94
2023-05-04T11:10:43.200Z,62.08
2023-05-04T11:13:11.523Z,57.62
2023-05-04T11:15:51.638Z,60.46
2023-05-04T11:18:36.990Z,56.56
2023-05-04T11:21:03.765Z,53.26
2023-05-04T11:23:30.961Z,53.36
2023-05-04T11:25:57.768Z,53.99
2023-05-04T11:28:34.215Z,53.19
2023-05-04T11:31:12.138Z,51.45
2023-05-04T11:33:46.504Z,53.97
2023-05-04T11:36:13.293Z,56.45
2023-05-04T11:38:40.322Z,56.23
2023-05-04T11:41:07.977Z,54.89
2023-05-04T11:43:37.110Z,53.95
2023-05-04T11:46:04.097Z,52.47
2023-05-04T11:48:31.694Z,56.40
2023-05-04T11:50:58.676Z,59.22
2023-05-04T11:53:26.329Z,58.78
2023-05-04T11:55:53.935Z,58.46
2023-05-04T11:58:24.876Z,57.54
2023-05-04T12:00:56.026Z,56.75
2023-05-04T12:03:39.720Z,56.95
2023-05-04T12:06:14.455Z,56.49
2023-05-04T12:08:41.720Z,55.44
2023-05-04T12:11:16.144Z,57.28
2023-05-04T12:13:44.533Z,57.07
2023-05-04T12:16:12.137Z,57.29
2023-05-04T12:18:38.995Z,57.73
2023-05-04T12:21:17.989Z,54.23
2023-05-04T12:23:45.533Z,53.12
2023-05-04T12:26:12.365Z,53.84
2023-05-04T12:28:41.126Z,68.26
2023-05-04T12:31:08.211Z,74.54
2023-05-04T12:33:35.570Z,74.00
2023-05-04T12:36:03.916Z,72.96
2023-05-04T12:38:31.172Z,74.63
2023-05-04T12:41:00.214Z,72.58
2023-05-04T12:43:26.966Z,72.23
2023-05-04T12:45:53.904Z,66.17
2023-05-04T12:48:21.149Z,63.70
2023-05-04T12:50:48.808Z,70.58
2023-05-04T12:53:16.481Z,71.89
2023-05-04T12:55:43.431Z,73.04
2023-05-04T12:58:10.478Z,73.17
2023-05-04T13:00:38.129Z,74.58
2023-05-04T13:03:05.210Z,67.96
2023-05-04T13:05:33.127Z,71.20
2023-05-04T13:08:00.264Z,70.40
2023-05-04T13:10:27.527Z,64.35
2023-05-04T13:12:54.332Z,72.10
2023-05-04T13:15:21.203Z,63.37
2023-05-04T13:17:48.074Z,55.36
2023-05-04T13:20:15.527Z,53.36
2023-05-04T13:22:45.859Z,51.93
2023-05-04T13:25:13.133Z,51.33
2023-05-04T13:27:40.138Z,63.92
2023-05-04T13:30:08.607Z,75.99
2023-05-04T13:32:35.760Z,66.25
2023-05-04T13:35:04.118Z,72.98
2023-05-04T13:37:31.322Z,62.52
2023-05-04T13:39:58.909Z,66.59
2023-05-04T13:42:26.023Z,68.51
2023-05-04T13:44:52.804Z,61.30
2023-05-04T13:47:19.555Z,57.77
2023-05-04T13:49:46.282Z,56.00
2023-05-04T13:52:13.501Z,56.10
2023-05-04T13:54:40.807Z,54.13
2023-05-04T13:57:07.529Z,72.76
2023-05-04T13:59:34.505Z,75.75
2023-05-04T14:02:01.515Z,81.14
2023-05-04T14:04:29.684Z,81.05
2023-05-04T14:06:57.111Z,78.66
2023-05-04T14:09:25.177Z,73.34
2023-05-04T14:11:52.997Z,81.70
2023-05-04T14:14:21.383Z,78.86
2023-05-04T14:16:48.183Z,72.76
2023-05-04T14:19:14.997Z,71.39
2023-05-04T14:21:41.708Z,70.06
2023-05-04T14:24:08.522Z,67.56
2023-05-04T14:26:35.592Z,67.23
2023-05-04T14:29:03.049Z,65.84
2023-05-04T14:31:30.414Z,65.86
2023-05-04T14:33:57.189Z,67.22
2023-05-04T14:36:24.033Z,74.85
2023-05-04T14:38:50.773Z,83.16
2023-05-04T14:41:17.801Z,85.73
2023-05-04T14:43:44.609Z,91.31
2023-05-04T14:46:12.533Z,100.00
2023-05-04T14:48:39.645Z,100.00
2023-05-04T14:51:06.504Z,99.57
2023-05-04T14:53:36.915Z,87.93
2023-05-04T14:56:05.059Z,96.63
2023-05-04T14:58:32.001Z,90.59
2023-05-04T15:00:59.138Z,86.03
2023-05-04T15:03:26.209Z,85.14
2023-05-04T15:05:54.151Z,80.93
2023-05-04T15:08:21.830Z,77.02
2023-05-04T15:10:48.617Z,78.16
2023-05-04T15:13:17.266Z,78.79
2023-05-04T15:15:44.330Z,76.87
2023-05-04T15:18:11.857Z,76.70
2023-05-04T15:20:38.954Z,76.24
2023-05-04T15:23:11.600Z,73.60
2023-05-04T15:25:38.982Z,74.26
2023-05-04T15:28:15.722Z,73.02
2023-05-04T15:30:42.918Z,93.13
2023-05-04T15:33:09.820Z,99.92
2023-05-04T15:35:37.653Z,99.77
2023-05-04T15:38:04.624Z,98.73
2023-05-04T15:40:31.632Z,96.20
2023-05-04T15:42:58.681Z,97.03
2023-05-04T15:45:25.619Z,96.69
2023-05-04T15:47:53.885Z,100.00
2023-05-04T15:50:21.035Z,99.84
2023-05-04T15:52:47.890Z,94.14
2023-05-04T15:55:25.543Z,88.17
2023-05-04T15:57:53.559Z,88.71
2023-05-04T16:00:20.959Z,92.08
2023-05-04T16:02:47.812Z,92.27
2023-05-04T16:05:14.830Z,90.47
2023-05-04T16:07:41.650Z,91.56
2023-05-04T16:10:09.772Z,88.71
2023-05-04T16:12:40.358Z,84.45
2023-05-04T16:15:07.486Z,87.87
2023-05-04T16:17:34.865Z,99.36
2023-05-04T16:20:03.034Z,100.00
2023-05-04T16:22:30.624Z,100.00
2023-05-04T16:24:57.329Z,100.00
2023-05-04T16:27:26.279Z,97.64
2023-05-04T16:29:53.259Z,91.43
2023-05-04T16:32:20.593Z,92.17
2023-05-04T16:34:47.473Z,91.92
2023-05-04T16:37:15.454Z,93.00
2023-05-04T16:39:42.238Z,90.62
2023-05-04T16:42:09.187Z,90.84
2023-05-04T16:44:36.805Z,92.69
2023-05-04T16:47:03.712Z,92.34
2023-05-04T16:49:31.601Z,90.46
2023-05-04T16:51:58.433Z,87.76
2023-05-04T16:54:25.642Z,87.02
2023-05-04T16:56:52.502Z,85.42
2023-05-04T16:59:19.304Z,84.81
2023-05-04T17:01:46.513Z,84.95
2023-05-04T17:04:13.300Z,85.78
2023-05-04T17:06:40.166Z,87.42
2023-05-04T17:09:07.003Z,85.43
2023-05-04T17:11:33.989Z,83.97
2023-05-04T17:14:01.000Z,82.68
2023-05-04T17:16:27.960Z,90.57
2023-05-04T17:18:54.888Z,96.34
2023-05-04T17:21:22.038Z,92.99
2023-05-04T17:23:48.845Z,90.48
2023-05-04T17:26:16.020Z,94.03
2023-05-04T17:28:42.856Z,93.10
2023-05-04T17:31:11.832Z,93.70
2023-05-04T17:33:39.419Z,94.70
2023-05-04T17:36:07.145Z,92.82
2023-05-04T17:38:34.557Z,90.49
2023-05-04T17:41:01.616Z,90.23
2023-05-04T17:43:28.729Z,87.87
2023-05-04T17:45:56.103Z,86.12
2023-05-04T17:48:23.440Z,85.16
2023-05-04T17:50:50.972Z,82.87
2023-05-04T17:53:17.941Z,79.66
2023-05-04T17:55:45.392Z,80.51
2023-05-04T17:58:12.249Z,79.91
2023-05-04T18:00:39.110Z,79.02
2023-05-04T18:03:06.136Z,78.80
2023-05-04T18:05:33.379Z,81.26
2023-05-04T18:08:00.299Z,81.06
2023-05-04T18:10:27.160Z,80.97
2023-05-04T18:12:55.979Z,80.71
2023-05-04T18:15:23.707Z,79.92
2023-05-04T18:17:50.687Z,79.71
2023-05-04T18:20:17.499Z,79.63
2023-05-04T18:22:44.806Z,79.49
2023-05-04T18:25:12.988Z,78.96
2023-05-04T18:27:39.886Z,77.27
2023-05-04T18:30:08.120Z,74.89
2023-05-04T18:32:36.222Z,73.88
2023-05-04T18:35:03.537Z,75.86
2023-05-04T18:37:30.814Z,73.36
2023-05-04T18:39:58.080Z,72.92
2023-05-04T18:42:25.020Z,72.93
2023-05-04T18:44:52.787Z,73.71
2023-05-04T18:47:19.842Z,75.31
2023-05-04T18:49:51.726Z,77.87
2023-05-04T18:52:18.533Z,77.63
2023-05-04T18:54:45.686Z,77.05
2023-05-04T18:57:13.649Z,76.30
2023-05-04T18:59:40.624Z,76.01
2023-05-04T19:02:08.908Z,75.94
2023-05-04T19:04:36.256Z,75.06
2023-05-04T19:07:03.169Z,75.02
2023-05-04T19:09:31.065Z,74.37
2023-05-04T19:11:57.890Z,73.90
2023-05-04T19:14:28.140Z,73.28
2023-05-04T19:16:57.607Z,73.99
2023-05-04T19:19:25.464Z,74.38
2023-05-04T19:21:52.512Z,74.04
2023-05-04T19:24:19.451Z,73.58
2023-05-04T19:26:46.708Z,72.49
2023-05-04T19:29:13.559Z,71.50
2023-05-04T19:31:40.810Z,71.93
2023-05-04T19:34:07.746Z,71.56
2023-05-04T19:36:35.029Z,70.24
2023-05-04T19:39:01.871Z,71.84
2023-05-04T19:41:28.987Z,74.57
2023-05-04T19:43:56.445Z,74.54
2023-05-04T19:46:24.172Z,73.04
2023-05-04T19:48:51.084Z,72.55
2023-05-04T19:51:17.938Z,72.37
2023-05-04T19:53:44.838Z,73.03
2023-05-04T19:56:11.775Z,73.40
2023-05-04T19:58:38.786Z,72.83
2023-05-04T20:01:05.812Z,71.78
2023-05-04T20:03:32.717Z,71.82
2023-05-04T20:06:02.935Z,69.69
2023-05-04T20:08:30.296Z,67.99
2023-05-04T20:10:57.237Z,66.27
2023-05-04T20:13:25.054Z,64.96
2023-05-04T20:15:51.937Z,64.24
2023-05-04T20:18:19.552Z,65.38
2023-05-04T20:20:46.400Z,64.92
2023-05-04T20:23:13.283Z,64.15
2023-05-04T20:25:40.540Z,64.21
2023-05-04T20:28:07.443Z,64.08
2023-05-04T20:30:34.256Z,64.49
2023-05-04T20:33:01.065Z,63.93
2023-05-04T20:35:28.213Z,63.42
2023-05-04T20:37:54.895Z,64.09
2023-05-04T20:40:21.996Z,68.11
2023-05-04T20:42:48.897Z,84.76
2023-05-04T20:45:15.762Z,84.23
2023-05-04T20:47:42.705Z,78.13
2023-05-04T20:50:11.241Z,79.61
2023-05-04T20:52:38.602Z,76.30
2023-05-04T20:55:06.900Z,73.00
2023-05-04T20:57:33.909Z,70.05
2023-05-04T21:00:01.095Z,68.81
2023-05-04T21:02:28.733Z,69.20
2023-05-04T21:04:55.638Z,70.43
2023-05-04T21:07:22.339Z,69.20
2023-05-04T21:09:49.128Z,68.68
2023-05-04T21:12:16.064Z,67.50
2023-05-04T21:14:43.313Z,65.20
2023-05-04T21:17:10.136Z,64.94
2023-05-04T21:19:37.306Z,66.20
2023-05-04T21:22:04.024Z,65.34
2023-05-04T21:24:32.630Z,67.36
2023-05-04T21:26:59.583Z,79.00
2023-05-04T21:29:26.625Z,90.61
2023-05-04T21:31:53.775Z,84.18
2023-05-04T21:34:20.856Z,79.81
2023-05-04T21:36:47.605Z,78.32
2023-05-04T21:39:15.459Z,76.95
2023-05-04T21:41:42.321Z,76.27
2023-05-04T21:44:09.109Z,75.28
2023-05-04T21:46:35.944Z,73.98
2023-05-04T21:49:03.409Z,72.34
2023-05-04T21:51:31.126Z,77.30
2023-05-04T21:53:58.020Z,76.62
2023-05-04T21:56:24.957Z,75.02
2023-05-04T21:58:51.905Z,72.71
2023-05-04T22:01:19.266Z,70.29
2023-05-04T22:03:46.178Z,69.11
2023-05-04T22:06:13.182Z,68.69
2023-05-04T22:08:40.304Z,67.63
2023-05-04T22:11:07.237Z,65.60
2023-05-04T22:13:34.443Z,71.08
2023-05-04T22:16:01.295Z,76.17
2023-05-04T22:18:28.277Z,77.35
2023-05-04T22:20:55.181Z,76.98
2023-05-04T22:23:22.049Z,77.29
2023-05-04T22:25:48.799Z,77.08
2023-05-04T22:28:15.742Z,75.97
2023-05-04T22:30:42.930Z,74.08
2023-05-04T22:33:09.714Z,73.76
2023-05-04T22:35:36.605Z,72.79
2023-05-04T22:38:04.480Z,72.36
2023-05-04T22:40:31.490Z,71.44
2023-05-04T22:42:58.350Z,72.87
2023-05-04T22:45:25.176Z,71.88
2023-05-04T22:47:52.211Z,70.03
2023-05-04T22:50:19.378Z,69.23
2023-05-04T22:52:46.180Z,70.30
2023-05-04T22:55:13.159Z,70.26
2023-05-04T22:57:39.998Z,70.79
2023-05-04T23:00:08.144Z,68.45
2023-05-04T23:02:36.347Z,66.50
2023-05-04T23:05:04.352Z,64.95
2023-05-04T23:07:31.561Z,65.79
2023-05-04T23:09:59.606Z,93.44
2023-05-04T23:12:27.122Z,90.82
2023-05-04T23:14:54.245Z,88.95
2023-05-04T23:17:21.533Z,93.23
2023-05-04T23:19:48.288Z,90.42
2023-05-04T23:22:15.424Z,88.19
2023-05-04T23:24:42.586Z,87.62
2023-05-04T23:27:10.564Z,88.25
2023-05-04T23:29:37.462Z,87.92
2023-05-04T23:32:04.915Z,87.12
2023-05-04T23:34:33.022Z,86.29
2023-05-04T23:37:00.090Z,85.15
2023-05-04T23:39:27.283Z,83.94
2023-05-04T23:41:54.049Z,82.92
2023-05-04T23:44:21.233Z,82.11
2023-05-04T23:46:48.102Z,79.54
2023-05-04T23:49:15.772Z,77.89
2023-05-04T23:51:42.605Z,79.58
2023-05-04T23:54:09.489Z,81.27
2023-05-04T23:56:36.816Z,80.76
2023-05-04T23:59:03.662Z,79.78
